Time;durP1;ratioP1;P1;durP2;ratioP2;P2;SDS_P1;SDS_P2;PMS_P1;PMS_P2;Temp;Humidity;BMP_temperature;BMP_pressure;BME280_temperature;BME280_humidity;BME280_pressure;Samples;Min_cycle;Max_cycle;Signal;HPM_P1;HPM_P2
2022/06/21 00:01:22;;;;;;;40.95;12.90;;;;;;;;;;5023670;28;20037;-63
2022/06/21 00:03:49;;;;;;;56.67;15.93;;;;;;;;;;5009680;28;20582;-63
2022/06/21 00:06:20;;;;;;;57.70;18.90;;;;;;;;;;5026405;28;20117;-62
2022/06/21 00:08:47;;;;;;;73.18;19.52;;;;;;;;;;5029742;28;20037;-62
2022/06/21 00:11:34;;;;;;;73.13;22.30;;;;;;;;;;5001171;28;20034;-63
2022/06/21 00:14:01;;;;;;;78.47;25.02;;;;;;;;;;5017415;28;20030;-62
2022/06/21 00:16:29;;;;;;;87.10;23.42;;;;;;;;;;5031977;28;20140;-62
2022/06/21 00:18:56;;;;;;;86.85;24.73;;;;;;;;;;5021886;28;20041;-62
2022/06/21 00:21:25;;;;;;;81.47;23.48;;;;;;;;;;5018588;28;20041;-62
2022/06/21 00:23:53;;;;;;;74.05;24.52;;;;;;;;;;5024932;28;20029;-62
2022/06/21 00:26:21;;;;;;;66.13;23.13;;;;;;;;;;5028238;28;20052;-62
2022/06/21 00:28:48;;;;;;;75.90;24.30;;;;;;;;;;5023503;28;20472;-62
2022/06/21 00:31:17;;;;;;;73.15;23.60;;;;;;;;;;5019329;28;20435;-62
2022/06/21 00:33:44;;;;;;;71.50;22.35;;;;;;;;;;5026940;28;20049;-62
2022/06/21 00:36:17;;;;;;;70.35;22.45;;;;;;;;;;5004966;28;20026;-64
2022/06/21 00:38:45;;;;;;;67.50;21.50;;;;;;;;;;5017733;28;20018;-64
2022/06/21 00:41:13;;;;;;;67.80;21.27;;;;;;;;;;5009468;28;20434;-60
2022/06/21 00:43:46;;;;;;;72.93;22.73;;;;;;;;;;5009803;28;20137;-62
2022/06/21 00:46:24;;;;;;;62.30;18.17;;;;;;;;;;5013724;28;20056;-63
2022/06/21 00:48:52;;;;;;;65.45;19.33;;;;;;;;;;5027631;28;20488;-61
2022/06/21 00:51:39;;;;;;;62.97;18.52;;;;;;;;;;5028032;28;20022;-61
2022/06/21 00:54:17;;;;;;;58.05;17.02;;;;;;;;;;5026796;28;20043;-61
2022/06/21 00:56:53;;;;;;;55.50;18.58;;;;;;;;;;5012278;28;20480;-61
2022/06/21 00:59:23;;;;;;;56.88;16.65;;;;;;;;;;5011250;28;20041;-62
2022/06/21 01:01:51;;;;;;;56.92;16.10;;;;;;;;;;5021694;28;20022;-60
2022/06/21 01:04:22;;;;;;;48.50;14.75;;;;;;;;;;5031126;28;20029;-62
2022/06/21 01:06:51;;;;;;;59.17;17.42;;;;;;;;;;5028560;28;20045;-61
2022/06/21 01:09:31;;;;;;;56.20;15.73;;;;;;;;;;5031036;28;20029;-62
2022/06/21 01:12:10;;;;;;;54.05;16.15;;;;;;;;;;5029367;28;20033;-62
2022/06/21 01:14:39;;;;;;;53.17;15.20;;;;;;;;;;5032621;28;20033;-62
2022/06/21 01:17:06;;;;;;;48.22;13.65;;;;;;;;;;5033457;28;20449;-62
2022/06/21 01:19:45;;;;;;;42.92;13.50;;;;;;;;;;5033739;28;20053;-62
2022/06/21 01:22:15;;;;;;;50.70;12.85;;;;;;;;;;5027308;28;20038;-62
2022/06/21 01:24:47;;;;;;;41.22;12.63;;;;;;;;;;5019452;28;20036;-62
2022/06/21 01:27:14;;;;;;;38.05;11.65;;;;;;;;;;5013719;28;20057;-62
2022/06/21 01:29:41;;;;;;;46.35;13.25;;;;;;;;;;5024673;28;20112;-62
2022/06/21 01:32:08;;;;;;;36.40;12.38;;;;;;;;;;5033216;28;20070;-61
2022/06/21 01:34:35;;;;;;;41.25;12.02;;;;;;;;;;5016033;28;20502;-62
2022/06/21 01:37:12;;;;;;;35.63;11.80;;;;;;;;;;5033108;28;20049;-62
2022/06/21 01:39:44;;;;;;;40.72;12.65;;;;;;;;;;5033187;28;20495;-62
2022/06/21 01:42:14;;;;;;;33.35;11.77;;;;;;;;;;5033248;28;20032;-62
2022/06/21 01:44:43;;;;;;;41.28;13.02;;;;;;;;;;5033668;28;20026;-62
2022/06/21 01:47:13;;;;;;;33.03;11.25;;;;;;;;;;5033186;28;20032;-62
2022/06/21 01:49:44;;;;;;;35.33;11.38;;;;;;;;;;5033488;28;20022;-62
2022/06/21 01:52:15;;;;;;;32.20;10.60;;;;;;;;;;5032705;28;20160;-62
2022/06/21 01:54:45;;;;;;;37.88;11.02;;;;;;;;;;5015134;28;20026;-62
2022/06/21 01:57:13;;;;;;;34.38;10.60;;;;;;;;;;5033252;28;20017;-62
2022/06/21 01:59:42;;;;;;;36.97;11.00;;;;;;;;;;5033117;28;20026;-62
2022/06/21 02:02:21;;;;;;;29.55;10.13;;;;;;;;;;5032585;28;20041;-62
2022/06/21 02:04:51;;;;;;;32.20;9.77;;;;;;;;;;5033652;28;20509;-62
2022/06/21 02:07:20;;;;;;;29.45;9.55;;;;;;;;;;5032733;28;20045;-62
2022/06/21 02:09:51;;;;;;;29.00;10.05;;;;;;;;;;5033217;28;20040;-62
2022/06/21 02:12:18;;;;;;;31.58;10.43;;;;;;;;;;5032380;28;20418;-62
2022/06/21 02:14:50;;;;;;;29.38;10.10;;;;;;;;;;5014939;28;20765;-62
2022/06/21 02:17:20;;;;;;;29.48;9.43;;;;;;;;;;5032804;28;20462;-62
2022/06/21 02:19:53;;;;;;;26.92;9.10;;;;;;;;;;5033083;28;20056;-62
2022/06/21 02:22:25;;;;;;;24.63;8.95;;;;;;;;;;5031677;28;20040;-63
2022/06/21 02:24:53;;;;;;;28.00;9.05;;;;;;;;;;5032344;28;20029;-62
2022/06/21 02:27:23;;;;;;;23.00;8.57;;;;;;;;;;5029855;28;20040;-62
2022/06/21 02:29:52;;;;;;;18.25;7.88;;;;;;;;;;5032008;28;20025;-62
2022/06/21 02:32:39;;;;;;;22.20;8.40;;;;;;;;;;5022817;28;20049;-63
2022/06/21 02:35:09;;;;;;;25.65;8.48;;;;;;;;;;5051883;28;20033;-62
2022/06/21 02:37:37;;;;;;;25.38;8.82;;;;;;;;;;5053018;28;20045;-62
2022/06/21 02:40:05;;;;;;;23.55;7.95;;;;;;;;;;5052487;28;20075;-62
2022/06/21 02:42:35;;;;;;;22.30;7.45;;;;;;;;;;5052024;28;20043;-62
2022/06/21 02:45:07;;;;;;;23.58;7.47;;;;;;;;;;5052811;28;20483;-62
2022/06/21 02:47:41;;;;;;;23.45;7.45;;;;;;;;;;5051858;28;20086;-62
2022/06/21 02:50:27;;;;;;;27.23;8.07;;;;;;;;;;5052625;28;20083;-62
2022/06/21 02:52:55;;;;;;;20.90;7.50;;;;;;;;;;5052149;28;20057;-62
2022/06/21 02:55:31;;;;;;;19.13;7.88;;;;;;;;;;5051699;28;20063;-62
2022/06/21 02:57:58;;;;;;;18.98;6.97;;;;;;;;;;5052007;28;20074;-62
2022/06/21 03:00:25;;;;;;;19.48;7.05;;;;;;;;;;5052215;28;20043;-62
2022/06/21 03:02:53;;;;;;;23.50;7.68;;;;;;;;;;5052705;28;20029;-62
2022/06/21 03:05:25;;;;;;;26.40;7.38;;;;;;;;;;5051922;28;20021;-62
2022/06/21 03:07:57;;;;;;;17.23;6.80;;;;;;;;;;5052121;28;20479;-62
2022/06/21 03:10:34;;;;;;;15.38;6.22;;;;;;;;;;5051861;28;20069;-62
2022/06/21 03:13:27;;;;;;;21.55;7.50;;;;;;;;;;5052326;28;20049;-62
2022/06/21 03:15:59;;;;;;;18.08;6.90;;;;;;;;;;5048790;28;20521;-62
2022/06/21 03:18:30;;;;;;;20.92;7.65;;;;;;;;;;5052351;28;20044;-62
2022/06/21 03:20:57;;;;;;;18.92;6.75;;;;;;;;;;5051509;28;20031;-62
2022/06/21 03:23:24;;;;;;;16.77;6.82;;;;;;;;;;5051553;28;20037;-62
2022/06/21 03:25:52;;;;;;;15.02;5.93;;;;;;;;;;5051528;28;20533;-62
2022/06/21 03:28:28;;;;;;;14.05;5.50;;;;;;;;;;5052026;28;20375;-62
2022/06/21 03:31:18;;;;;;;15.15;5.70;;;;;;;;;;5051244;28;20063;-61
2022/06/21 03:33:47;;;;;;;13.77;5.43;;;;;;;;;;5044330;28;20049;-62
2022/06/21 03:36:15;;;;;;;14.43;5.80;;;;;;;;;;5052045;28;20053;-62
2022/06/21 03:38:45;;;;;;;18.27;6.13;;;;;;;;;;5050798;28;20434;-62
2022/06/21 03:44:01;;;;;;;17.52;5.95;;;;;;;;;;5051796;28;20102;-62
2022/06/21 03:46:32;;;;;;;13.48;5.30;;;;;;;;;;5033633;28;20059;-62
2022/06/21 03:49:08;;;;;;;12.63;5.53;;;;;;;;;;5051165;28;20124;-62
2022/06/21 03:51:38;;;;;;;14.63;5.75;;;;;;;;;;5051805;28;20021;-62
2022/06/21 03:54:09;;;;;;;15.07;5.80;;;;;;;;;;5051460;28;20106;-62
2022/06/21 03:56:40;;;;;;;14.48;5.00;;;;;;;;;;5051323;28;20024;-62
2022/06/21 03:59:07;;;;;;;13.50;5.15;;;;;;;;;;5050999;28;20048;-62
2022/06/21 04:01:38;;;;;;;13.13;5.47;;;;;;;;;;5051366;28;20456;-62
2022/06/21 04:04:05;;;;;;;14.70;5.03;;;;;;;;;;5051068;28;20430;-62
2022/06/21 04:06:52;;;;;;;16.75;5.57;;;;;;;;;;5051070;28;20025;-62
2022/06/21 04:09:19;;;;;;;13.80;4.95;;;;;;;;;;5040823;28;20049;-62
2022/06/21 04:11:49;;;;;;;14.75;5.20;;;;;;;;;;5051534;28;20112;-62
2022/06/21 04:14:32;;;;;;;10.45;4.45;;;;;;;;;;5050900;28;20769;-61
2022/06/21 04:17:06;;;;;;;13.93;4.97;;;;;;;;;;5051106;28;20028;-62
2022/06/21 04:19:53;;;;;;;11.50;5.00;;;;;;;;;;5051130;28;20037;-62
2022/06/21 04:22:38;;;;;;;11.93;5.00;;;;;;;;;;5033045;28;20044;-61
2022/06/21 04:25:23;;;;;;;12.18;4.45;;;;;;;;;;5051385;28;20479;-62
2022/06/21 04:28:03;;;;;;;10.25;4.93;;;;;;;;;;5051583;28;20108;-62
2022/06/21 04:30:52;;;;;;;13.73;4.97;;;;;;;;;;5050843;28;20036;-62
2022/06/21 04:33:39;;;;;;;9.35;4.20;;;;;;;;;;5050631;28;20045;-62
2022/06/21 04:36:18;;;;;;;10.40;4.93;;;;;;;;;;5051385;28;20028;-62
2022/06/21 04:38:48;;;;;;;10.65;4.53;;;;;;;;;;5050841;28;20025;-62
2022/06/21 04:41:38;;;;;;;9.70;4.22;;;;;;;;;;5050849;28;20435;-62
2022/06/21 04:44:08;;;;;;;8.07;3.75;;;;;;;;;;5051549;28;20025;-62
2022/06/21 04:46:58;;;;;;;8.15;3.88;;;;;;;;;;5050560;28;20447;-62
2022/06/21 04:49:45;;;;;;;10.95;4.30;;;;;;;;;;5044895;28;20125;-62
2022/06/21 04:52:22;;;;;;;9.73;3.88;;;;;;;;;;5054196;28;20098;-62
2022/06/21 04:54:49;;;;;;;7.20;3.33;;;;;;;;;;5054698;28;20021;-62
2022/06/21 04:57:24;;;;;;;9.70;3.67;;;;;;;;;;5054467;28;20158;-62
2022/06/21 04:59:53;;;;;;;10.15;4.05;;;;;;;;;;5053769;28;20069;-62
2022/06/21 05:02:32;;;;;;;8.30;3.72;;;;;;;;;;5054478;28;20029;-62
2022/06/21 05:05:01;;;;;;;7.88;3.40;;;;;;;;;;5054712;28;20021;-62
2022/06/21 05:07:30;;;;;;;8.95;3.90;;;;;;;;;;5053891;28;20032;-62
2022/06/21 05:09:58;;;;;;;9.07;3.80;;;;;;;;;;5054607;28;20108;-62
2022/06/21 05:12:34;;;;;;;7.00;3.10;;;;;;;;;;5054330;28;20044;-62
2022/06/21 05:15:10;;;;;;;6.97;3.30;;;;;;;;;;5053970;28;20120;-62
2022/06/21 05:17:41;;;;;;;7.63;3.58;;;;;;;;;;5053985;28;20086;-62
2022/06/21 05:20:12;;;;;;;9.75;3.72;;;;;;;;;;5053563;28;20036;-62
2022/06/21 05:22:45;;;;;;;7.32;3.15;;;;;;;;;;5053751;28;20091;-62
2022/06/21 05:25:22;;;;;;;10.10;2.92;;;;;;;;;;5054065;28;20029;-62
2022/06/21 05:27:55;;;;;;;7.85;3.42;;;;;;;;;;5054062;28;20025;-62
2022/06/21 05:30:32;;;;;;;7.10;2.97;;;;;;;;;;5053759;28;20033;-61
2022/06/21 05:33:01;;;;;;;7.13;3.15;;;;;;;;;;5053343;28;20102;-62
2022/06/21 05:35:32;;;;;;;6.10;3.08;;;;;;;;;;5053870;28;20025;-62
2022/06/21 05:38:35;;;;;;;5.28;2.80;;;;;;;;;;5053022;28;20033;-62
2022/06/21 05:41:29;;;;;;;5.70;2.88;;;;;;;;;;4991743;28;20037;-62
2022/06/21 05:44:16;;;;;;;7.25;3.15;;;;;;;;;;5053290;28;20059;-62
2022/06/21 05:46:48;;;;;;;5.60;2.80;;;;;;;;;;5023153;28;20064;-61
2022/06/21 05:49:27;;;;;;;5.93;2.95;;;;;;;;;;5053662;28;20043;-62
2022/06/21 05:51:57;;;;;;;6.60;3.17;;;;;;;;;;5053532;28;20391;-62
2022/06/21 05:54:26;;;;;;;6.68;2.60;;;;;;;;;;5053634;28;20041;-62
2022/06/21 05:56:53;;;;;;;6.32;2.47;;;;;;;;;;5053081;28;20017;-62
2022/06/21 05:59:23;;;;;;;6.88;2.45;;;;;;;;;;5053306;28;20395;-62
2022/06/21 06:02:16;;;;;;;4.50;2.60;;;;;;;;;;5053381;28;20455;-62
2022/06/21 06:04:42;;;;;;;;;;;;;;;;;;5050972;28;20553;-62
2022/06/21 06:07:15;;;;;;;5.20;2.95;;;;;;;;;;5053249;28;19999;-62
2022/06/21 06:09:44;;;;;;;5.60;2.88;;;;;;;;;;5052700;28;20036;-62
2022/06/21 06:12:20;;;;;;;5.93;2.60;;;;;;;;;;5053284;28;20062;-62
2022/06/21 06:15:06;;;;;;;7.55;2.60;;;;;;;;;;5052691;28;20037;-61
2022/06/21 06:17:56;;;;;;;5.43;2.60;;;;;;;;;;5053082;28;20020;-62
2022/06/21 06:20:31;;;;;;;5.68;2.38;;;;;;;;;;5052740;28;20032;-62
2022/06/21 06:23:13;;;;;;;5.68;2.30;;;;;;;;;;5034966;28;20154;-62
2022/06/21 06:25:43;;;;;;;4.18;2.40;;;;;;;;;;5053121;28;20030;-62
2022/06/21 06:28:20;;;;;;;5.00;2.35;;;;;;;;;;5053049;28;20507;-62
2022/06/21 06:30:53;;;;;;;6.75;2.65;;;;;;;;;;5052008;28;20506;-62
2022/06/21 06:33:20;;;;;;;5.50;2.38;;;;;;;;;;5052807;28;20491;-62
2022/06/21 06:35:48;;;;;;;5.28;2.35;;;;;;;;;;5052169;28;20033;-62
2022/06/21 06:38:16;;;;;;;5.15;2.30;;;;;;;;;;5052706;28;20040;-62
2022/06/21 06:40:48;;;;;;;5.30;2.42;;;;;;;;;;5034077;28;20048;-61
2022/06/21 06:43:22;;;;;;;5.82;2.30;;;;;;;;;;5052914;28;20029;-62
2022/06/21 06:45:50;;;;;;;4.53;2.05;;;;;;;;;;5051840;28;20043;-62
2022/06/21 06:48:43;;;;;;;6.28;2.35;;;;;;;;;;5052878;28;20021;-62
2022/06/21 06:51:16;;;;;;;4.22;2.35;;;;;;;;;;5049880;28;20048;-62
2022/06/21 06:53:48;;;;;;;4.88;2.05;;;;;;;;;;5052094;28;20052;-62
2022/06/21 06:56:18;;;;;;;7.63;2.15;;;;;;;;;;5052089;28;20594;-62
2022/06/21 07:01:41;;;;;;;3.83;2.13;;;;;;;;;;5057783;23;20059;-61
2022/06/21 07:04:11;;;;;;;7.20;2.65;;;;;;;;;;5052162;28;20489;-61
2022/06/21 07:06:49;;;;;;;3.47;1.85;;;;;;;;;;5052570;28;20025;-61
2022/06/21 07:09:19;;;;;;;4.13;1.90;;;;;;;;;;5052359;28;20386;-61
2022/06/21 07:11:48;;;;;;;3.03;1.60;;;;;;;;;;5051782;28;20106;-60
2022/06/21 07:14:26;;;;;;;4.13;1.80;;;;;;;;;;5052162;28;20017;-61
2022/06/21 07:17:02;;;;;;;4.03;2.13;;;;;;;;;;5052481;28;20033;-61
2022/06/21 07:19:29;;;;;;;3.63;1.73;;;;;;;;;;5052100;28;20028;-61
2022/06/21 07:21:56;;;;;;;3.30;1.75;;;;;;;;;;5052344;28;20033;-61
2022/06/21 07:24:24;;;;;;;4.68;1.83;;;;;;;;;;5052010;28;20513;-61
2022/06/21 07:27:00;;;;;;;3.38;1.55;;;;;;;;;;5052370;28;20029;-61
2022/06/21 07:29:35;;;;;;;3.95;1.75;;;;;;;;;;5051798;28;20032;-61
2022/06/21 07:32:05;;;;;;;2.78;1.50;;;;;;;;;;5052329;28;20517;-60
2022/06/21 07:34:42;;;;;;;2.90;1.65;;;;;;;;;;5052083;28;20112;-61
2022/06/21 07:37:13;;;;;;;5.25;1.70;;;;;;;;;;5052248;28;20032;-61
2022/06/21 07:39:50;;;;;;;3.03;1.88;;;;;;;;;;5052095;28;20040;-61
2022/06/21 07:42:24;;;;;;;3.75;1.63;;;;;;;;;;5051661;28;20360;-61
2022/06/21 07:45:04;;;;;;;2.50;1.40;;;;;;;;;;5052236;28;20495;-61
2022/06/21 07:47:35;;;;;;;3.47;1.58;;;;;;;;;;5051698;28;20060;-61
2022/06/21 07:50:09;;;;;;;2.72;1.50;;;;;;;;;;5051943;28;20028;-61
2022/06/21 07:52:41;;;;;;;2.88;1.73;;;;;;;;;;5052051;28;20502;-61
2022/06/21 07:55:13;;;;;;;2.70;1.50;;;;;;;;;;5051711;28;20029;-61
2022/06/21 07:57:59;;;;;;;2.97;1.40;;;;;;;;;;5050702;28;20029;-61
2022/06/21 08:06:40;;;;;;;2.28;1.38;;;;;;;;;;5062332;28;20151;-61
2022/06/21 08:08:55;;;;;;;3.00;1.55;;;;;;;;;;5072043;28;20032;-61
2022/06/21 08:11:26;;;;;;;3.40;1.60;;;;;;;;;;5071427;28;20028;-61
2022/06/21 08:13:53;;;;;;;3.50;1.55;;;;;;;;;;5071770;28;20134;-61
2022/06/21 08:16:23;;;;;;;1.95;1.25;;;;;;;;;;5071774;28;20024;-61
2022/06/21 08:18:58;;;;;;;2.60;1.23;;;;;;;;;;5071525;28;20028;-61
2022/06/21 08:21:28;;;;;;;3.25;1.42;;;;;;;;;;5070981;28;20024;-60
2022/06/21 08:24:03;;;;;;;2.50;1.25;;;;;;;;;;5072301;28;20103;-61
2022/06/21 08:26:33;;;;;;;2.50;1.33;;;;;;;;;;5075393;28;20020;-61
2022/06/21 08:29:06;;;;;;;3.42;1.73;;;;;;;;;;5075375;28;20031;-61
2022/06/21 08:31:35;;;;;;;2.80;1.30;;;;;;;;;;5074693;28;20025;-61
2022/06/21 08:34:09;;;;;;;4.47;1.30;;;;;;;;;;5074875;28;20025;-61
2022/06/21 08:36:55;;;;;;;2.97;1.30;;;;;;;;;;5075111;28;20363;-61
2022/06/21 08:39:22;;;;;;;3.78;1.08;;;;;;;;;;5075026;28;20036;-61
2022/06/21 08:42:01;;;;;;;2.85;1.75;;;;;;;;;;5074762;28;20039;-60
2022/06/21 08:47:46;;;;;;;2.72;1.15;;;;;;;;;;5074824;28;20079;-60
2022/06/21 08:50:32;;;;;;;2.85;1.42;;;;;;;;;;5074696;28;20052;-60
2022/06/21 08:53:24;;;;;;;2.00;1.30;;;;;;;;;;5075106;28;20409;-61
2022/06/21 08:56:10;;;;;;;1.52;1.00;;;;;;;;;;5074665;28;20525;-61
2022/06/21 08:58:46;;;;;;;1.60;1.35;;;;;;;;;;5074423;28;20032;-60
2022/06/21 09:01:23;;;;;;;2.45;1.00;;;;;;;;;;5074117;28;20046;-61
2022/06/21 09:03:50;;;;;;;2.05;1.08;;;;;;;;;;5074906;28;20032;-61
2022/06/21 09:06:25;;;;;;;2.13;1.30;;;;;;;;;;5074722;28;20118;-61
2022/06/21 09:09:18;;;;;;;2.15;0.90;;;;;;;;;;5073912;28;20181;-61
2022/06/21 09:11:59;;;;;;;2.67;1.15;;;;;;;;;;5037069;28;20047;-61
2022/06/21 09:14:38;;;;;;;1.45;0.90;;;;;;;;;;5074356;28;20476;-61
2022/06/21 09:17:23;;;;;;;2.97;1.00;;;;;;;;;;5074493;28;20039;-60
2022/06/21 09:19:50;;;;;;;2.60;1.10;;;;;;;;;;5074307;28;20032;-61
2022/06/21 09:22:36;;;;;;;1.88;1.00;;;;;;;;;;5074021;28;20025;-61
2022/06/21 09:25:05;;;;;;;4.85;1.10;;;;;;;;;;5074454;28;20490;-60
2022/06/21 09:27:40;;;;;;;2.35;1.20;;;;;;;;;;5073757;28;20074;-61
2022/06/21 09:30:07;;;;;;;2.47;1.23;;;;;;;;;;5074232;28;20028;-61
2022/06/21 09:32:53;;;;;;;1.40;0.80;;;;;;;;;;5073428;28;20432;-61
2022/06/21 09:35:37;;;;;;;1.83;1.17;;;;;;;;;;5063268;28;20437;-61
2022/06/21 09:38:12;;;;;;;3.55;0.93;;;;;;;;;;5060763;28;20067;-61
2022/06/21 09:41:02;;;;;;;3.97;1.27;;;;;;;;;;5064047;28;20123;-61
2022/06/21 09:43:35;;;;;;;9.95;1.40;;;;;;;;;;5031463;28;20029;-61
2022/06/21 09:46:12;;;;;;;11.90;1.60;;;;;;;;;;5073686;28;20363;-61
2022/06/21 09:48:51;;;;;;;9.45;1.45;;;;;;;;;;5070287;28;20486;-61
2022/06/21 09:51:27;;;;;;;6.93;1.60;;;;;;;;;;5054110;28;20571;-61
2022/06/21 09:54:00;;;;;;;11.30;1.70;;;;;;;;;;5053149;28;20055;-61
2022/06/21 09:56:27;;;;;;;7.47;1.38;;;;;;;;;;5059123;28;20035;-61
2022/06/21 09:58:54;;;;;;;6.88;1.20;;;;;;;;;;5070045;28;20086;-61
2022/06/21 10:01:31;;;;;;;6.22;1.20;;;;;;;;;;5055913;28;20495;-61
2022/06/21 10:04:04;;;;;;;8.50;1.73;;;;;;;;;;5053342;28;20033;-60
2022/06/21 10:06:31;;;;;;;7.72;1.48;;;;;;;;;;5071139;28;20596;-64
2022/06/21 10:09:12;;;;;;;13.15;1.83;;;;;;;;;;5055346;28;20115;-63
2022/06/21 10:11:39;;;;;;;7.22;1.40;;;;;;;;;;5071693;28;20044;-63
2022/06/21 10:14:26;;;;;;;6.30;1.27;;;;;;;;;;5072380;28;20470;-62
2022/06/21 10:17:28;;;;;;;5.63;1.55;;;;;;;;;;5071968;28;20074;-61
2022/06/21 10:20:13;;;;;;;9.50;1.85;;;;;;;;;;4971290;28;20066;-62
2022/06/21 10:22:48;;;;;;;4.97;1.35;;;;;;;;;;5064821;28;20376;-61
2022/06/21 10:25:18;;;;;;;6.93;1.17;;;;;;;;;;5071526;28;20033;-62
2022/06/21 10:27:59;;;;;;;5.32;1.42;;;;;;;;;;5071365;28;20490;-61
2022/06/21 10:30:45;;;;;;;5.88;1.25;;;;;;;;;;5071330;28;20024;-61
2022/06/21 10:33:18;;;;;;;6.88;1.42;;;;;;;;;;5071490;28;20032;-61
2022/06/21 10:35:44;;;;;;;8.43;1.60;;;;;;;;;;5072737;28;20028;-62
2022/06/21 10:38:16;;;;;;;7.50;1.50;;;;;;;;;;5051831;28;20033;-62
2022/06/21 10:40:51;;;;;;;3.25;0.85;;;;;;;;;;5051393;28;20573;-63
2022/06/21 10:43:34;;;;;;;3.47;1.30;;;;;;;;;;5051074;28;20068;-59
2022/06/21 10:46:10;;;;;;;13.05;1.92;;;;;;;;;;5059662;28;20024;-60
2022/06/21 10:48:57;;;;;;;9.63;1.30;;;;;;;;;;5072411;28;20436;-60
2022/06/21 10:51:24;;;;;;;6.10;1.20;;;;;;;;;;5071103;28;20463;-60
2022/06/21 10:54:02;;;;;;;7.07;1.38;;;;;;;;;;5072315;28;20025;-60
2022/06/21 11:02:36;;;;;;;8.07;1.30;;;;;;;;;;5072179;28;20576;-60
2022/06/21 11:05:07;;;;;;;7.50;1.35;;;;;;;;;;5071549;28;20371;-60
2022/06/21 11:07:51;;;;;;;9.48;1.73;;;;;;;;;;5072400;28;20032;-60
2022/06/21 11:10:21;;;;;;;12.13;1.27;;;;;;;;;;5072125;28;20040;-60
2022/06/21 11:12:53;;;;;;;2.85;0.98;;;;;;;;;;5072244;28;20467;-60
2022/06/21 11:15:36;;;;;;;9.27;1.38;;;;;;;;;;5071621;28;20051;-60
2022/06/21 11:18:21;;;;;;;16.80;1.75;;;;;;;;;;5069640;28;20484;-60
2022/06/21 11:21:06;;;;;;;7.10;1.30;;;;;;;;;;5071802;28;20028;-61
2022/06/21 11:23:55;;;;;;;4.90;1.05;;;;;;;;;;5071811;28;20433;-61
2022/06/21 11:26:22;;;;;;;6.53;1.17;;;;;;;;;;5072162;28;20029;-61
2022/06/21 11:28:49;;;;;;;57.20;3.60;;;;;;;;;;5071419;28;20055;-61
2022/06/21 11:31:28;;;;;;;22.55;2.30;;;;;;;;;;5072219;28;20111;-63
2022/06/21 11:34:07;;;;;;;22.33;1.73;;;;;;;;;;5071710;28;20021;-60
2022/06/21 11:36:38;;;;;;;175.50;15.18;;;;;;;;;;5071828;28;20249;-62
2022/06/21 11:39:05;;;;;;;280.83;28.33;;;;;;;;;;5071810;28;20505;-61
2022/06/21 11:44:18;;;;;;;68.15;5.53;;;;;;;;;;5071339;28;20409;-59
2022/06/21 11:46:54;;;;;;;48.50;5.28;;;;;;;;;;5071712;28;20043;-63
2022/06/21 11:49:24;;;;;;;45.03;5.57;;;;;;;;;;5071257;28;20024;-63
2022/06/21 11:52:09;;;;;;;38.85;4.20;;;;;;;;;;5071251;28;20025;-62
2022/06/21 11:55:08;;;;;;;146.20;12.30;;;;;;;;;;5071305;28;20111;-59
2022/06/21 11:57:35;;;;;;;51.47;6.15;;;;;;;;;;5029206;28;20089;-62
2022/06/21 12:00:18;;;;;;;63.72;6.50;;;;;;;;;;5070001;28;20059;-61
2022/06/21 12:02:56;;;;;;;69.55;7.57;;;;;;;;;;5074129;28;20368;-59
2022/06/21 12:05:26;;;;;;;78.05;9.05;;;;;;;;;;5067186;28;20025;-59
2022/06/21 12:08:02;;;;;;;78.47;10.50;;;;;;;;;;5039933;28;20048;-59
2022/06/21 12:10:41;;;;;;;77.65;11.63;;;;;;;;;;5069076;28;20651;-62
2022/06/21 12:13:22;;;;;;;81.00;11.65;;;;;;;;;;5069367;28;20056;-59
2022/06/21 12:15:58;;;;;;;83.82;11.95;;;;;;;;;;5048818;28;20607;-59
2022/06/21 12:18:26;;;;;;;69.20;10.23;;;;;;;;;;5068958;28;20028;-62
2022/06/21 12:21:03;;;;;;;68.10;10.45;;;;;;;;;;5070064;28;20041;-59
2022/06/21 12:23:36;;;;;;;86.78;12.15;;;;;;;;;;5071392;28;20040;-62
2022/06/21 12:26:05;;;;;;;70.53;9.85;;;;;;;;;;5067915;28;20116;-62
2022/06/21 12:28:34;;;;;;;74.80;10.52;;;;;;;;;;5071901;28;20078;-62
2022/06/21 12:31:03;;;;;;;66.88;9.45;;;;;;;;;;5070987;28;20081;-59
2022/06/21 12:33:36;;;;;;;66.88;10.65;;;;;;;;;;5066118;28;20035;-62
2022/06/21 12:36:06;;;;;;;54.55;8.43;;;;;;;;;;5068956;28;20028;-59
2022/06/21 12:38:36;;;;;;;57.00;9.35;;;;;;;;;;5064065;28;20039;-62
2022/06/21 12:41:22;;;;;;;59.17;8.23;;;;;;;;;;5068171;28;20032;-61
2022/06/21 12:44:05;;;;;;;50.03;8.25;;;;;;;;;;5065311;28;20044;-61
2022/06/21 12:46:40;;;;;;;51.88;7.78;;;;;;;;;;5065528;28;20067;-62
2022/06/21 12:49:26;;;;;;;44.42;8.20;;;;;;;;;;5062766;28;20024;-61
2022/06/21 12:52:19;;;;;;;51.17;8.38;;;;;;;;;;5060533;28;20036;-61
2022/06/21 12:54:56;;;;;;;58.08;7.75;;;;;;;;;;5068097;28;20037;-60
2022/06/21 12:57:32;;;;;;;51.70;7.65;;;;;;;;;;5067754;28;20036;-62
2022/06/21 13:00:17;;;;;;;52.28;8.35;;;;;;;;;;5064826;28;20049;-62
2022/06/21 13:02:47;;;;;;;51.50;8.07;;;;;;;;;;5066813;28;20049;-59
2022/06/21 13:05:29;;;;;;;60.83;8.50;;;;;;;;;;5066498;28;20035;-61
2022/06/21 13:08:05;;;;;;;46.92;6.70;;;;;;;;;;5058431;28;20060;-62
2022/06/21 13:10:41;;;;;;;33.22;5.80;;;;;;;;;;5055949;28;20126;-62
2022/06/21 13:13:27;;;;;;;38.08;5.32;;;;;;;;;;5046202;28;20095;-59
2022/06/21 13:16:02;;;;;;;27.20;4.75;;;;;;;;;;5060803;28;20041;-61
2022/06/21 13:18:53;;;;;;;32.88;5.13;;;;;;;;;;5070639;28;20394;-61
2022/06/21 13:21:20;;;;;;;24.88;4.03;;;;;;;;;;5060194;28;20044;-58
2022/06/21 13:23:56;;;;;;;19.00;3.97;;;;;;;;;;5073089;28;20390;-58
2022/06/21 13:26:26;;;;;;;22.95;4.03;;;;;;;;;;5066744;28;20786;-58
2022/06/21 13:29:12;;;;;;;26.02;4.45;;;;;;;;;;5064232;28;20702;-58
2022/06/21 13:31:45;;;;;;;24.77;3.75;;;;;;;;;;5058571;28;20036;-61
2022/06/21 13:34:27;;;;;;;21.88;3.88;;;;;;;;;;5054797;28;20068;-59
2022/06/21 13:36:56;;;;;;;24.02;3.63;;;;;;;;;;5068883;28;20024;-59
2022/06/21 13:39:29;;;;;;;18.30;3.28;;;;;;;;;;5065818;28;20082;-59
2022/06/21 13:45:03;;;;;;;22.73;3.75;;;;;;;;;;5066992;28;20506;-61
2022/06/21 13:47:33;;;;;;;22.67;3.80;;;;;;;;;;5067394;28;20036;-59
2022/06/21 13:50:14;;;;;;;20.92;3.20;;;;;;;;;;5067385;28;20040;-61
2022/06/21 13:52:41;;;;;;;20.50;3.35;;;;;;;;;;5067657;28;20036;-61
2022/06/21 13:55:26;;;;;;;24.83;3.60;;;;;;;;;;5065292;28;20032;-58
2022/06/21 13:58:14;;;;;;;18.05;3.22;;;;;;;;;;5070005;28;20035;-59
2022/06/21 14:00:48;;;;;;;15.60;2.92;;;;;;;;;;5051145;28;20844;-62
2022/06/21 14:03:15;;;;;;;22.13;3.33;;;;;;;;;;5074427;28;20021;-58
2022/06/21 14:05:47;;;;;;;22.58;3.35;;;;;;;;;;5067396;28;20025;-59
2022/06/21 14:08:20;;;;;;;22.65;3.70;;;;;;;;;;5062747;28;20429;-58
2022/06/21 14:10:59;;;;;;;16.73;3.00;;;;;;;;;;5066098;28;20028;-60
2022/06/21 14:13:44;;;;;;;15.68;3.25;;;;;;;;;;5070467;28;20020;-59
2022/06/21 14:16:20;;;;;;;16.45;3.40;;;;;;;;;;5059882;28;20056;-61
2022/06/21 14:18:53;;;;;;;20.23;3.13;;;;;;;;;;5066639;28;20040;-59
2022/06/21 14:21:24;;;;;;;15.10;3.33;;;;;;;;;;5064503;28;20527;-59
2022/06/21 14:23:50;;;;;;;22.65;3.10;;;;;;;;;;5066216;28;20089;-59
2022/06/21 14:26:28;;;;;;;16.40;3.05;;;;;;;;;;5063003;28;20029;-58
2022/06/21 14:29:01;;;;;;;12.90;2.60;;;;;;;;;;5069970;28;20029;-60
2022/06/21 14:31:34;;;;;;;19.38;3.25;;;;;;;;;;5064061;28;20029;-59
2022/06/21 14:34:24;;;;;;;16.48;3.15;;;;;;;;;;5072789;28;20056;-59
2022/06/21 14:37:20;;;;;;;15.32;3.47;;;;;;;;;;5023638;28;20109;-61
2022/06/21 14:40:09;;;;;;;25.30;4.82;;;;;;;;;;5048741;28;20387;-61
2022/06/21 14:42:43;;;;;;;20.63;5.28;;;;;;;;;;5055187;28;20045;-61
2022/06/21 14:45:25;;;;;;;28.00;6.38;;;;;;;;;;5070047;28;20020;-62
2022/06/21 14:47:51;;;;;;;27.48;7.78;;;;;;;;;;5063859;28;20032;-59
2022/06/21 14:50:48;;;;;;;29.67;9.43;;;;;;;;;;5065115;28;20020;-59
2022/06/21 14:53:29;;;;;;;38.35;9.88;;;;;;;;;;5041678;28;20438;-61
2022/06/21 14:55:56;;;;;;;28.25;9.65;;;;;;;;;;5064458;28;20043;-59
2022/06/21 14:58:41;;;;;;;27.75;10.02;;;;;;;;;;5044357;28;20079;-59
2022/06/21 15:01:18;;;;;;;35.60;10.43;;;;;;;;;;5066992;28;20592;-61
2022/06/21 15:03:51;;;;;;;34.83;10.50;;;;;;;;;;5064172;28;20056;-59
2022/06/21 15:06:21;;;;;;;37.10;10.88;;;;;;;;;;5061010;28;20195;-59
2022/06/21 15:08:53;;;;;;;27.58;10.10;;;;;;;;;;5061222;28;20036;-61
2022/06/21 15:11:52;;;;;;;28.88;9.77;;;;;;;;;;5065491;28;20036;-61
2022/06/21 15:14:11;;;;;;;36.75;10.55;;;;;;;;;;5064461;28;20379;-59
2022/06/21 15:16:47;;;;;;;36.00;10.35;;;;;;;;;;5063086;28;20025;-61
2022/06/21 15:22:16;;;;;;;33.88;10.27;;;;;;;;;;5061585;28;20111;-59
2022/06/21 15:24:44;;;;;;;30.63;9.30;;;;;;;;;;5066778;28;20199;-62
2022/06/21 15:27:17;;;;;;;28.70;9.57;;;;;;;;;;5063899;28;20028;-59
2022/06/21 15:29:55;;;;;;;32.78;8.38;;;;;;;;;;5067969;28;20121;-59
2022/06/21 15:32:42;;;;;;;27.85;8.45;;;;;;;;;;5064756;28;20162;-61
2022/06/21 15:35:09;;;;;;;32.60;8.13;;;;;;;;;;5067696;28;20103;-59
2022/06/21 15:37:36;;;;;;;27.15;8.00;;;;;;;;;;5064774;28;20032;-61
2022/06/21 15:40:06;;;;;;;28.10;7.60;;;;;;;;;;5060954;28;20037;-63
2022/06/21 15:42:40;;;;;;;39.08;8.80;;;;;;;;;;5066315;28;20031;-59
2022/06/21 15:45:13;;;;;;;35.75;8.23;;;;;;;;;;5064349;28;20046;-59
2022/06/21 15:50:28;;;;;;;39.67;7.40;;;;;;;;;;5067761;28;20402;-60